createdAt,value
2019-03-25T00:01:18.941Z,6.70
2019-03-25T00:02:51.774Z,6.70
2019-03-25T00:04:24.698Z,6.70
2019-03-25T00:05:57.549Z,6.70
2019-03-25T00:07:30.258Z,6.70
2019-03-25T00:09:05.687Z,6.70
2019-03-25T00:10:38.707Z,6.70
2019-03-25T00:12:11.542Z,6.70
2019-03-25T00:13:44.316Z,6.70
2019-03-25T00:15:17.161Z,6.70
2019-03-25T00:16:50.030Z,6.70
2019-03-25T00:18:22.824Z,6.60
2019-03-25T00:19:55.678Z,6.60
2019-03-25T00:21:28.418Z,6.60
2019-03-25T00:23:01.274Z,6.50
2019-03-25T00:24:38.744Z,6.50
2019-03-25T00:26:08.607Z,6.50
2019-03-25T00:27:41.244Z,6.50
2019-03-25T00:29:14.057Z,6.50
2019-03-25T00:30:46.915Z,6.50
2019-03-25T00:32:19.745Z,6.50
2019-03-25T00:33:52.535Z,6.50
2019-03-25T00:35:25.259Z,6.50
2019-03-25T00:36:58.058Z,6.50
2019-03-25T00:38:30.909Z,6.50
2019-03-25T00:40:04.871Z,6.40
2019-03-25T00:41:37.572Z,6.50
2019-03-25T00:43:10.350Z,6.40
2019-03-25T00:44:43.249Z,6.40
2019-03-25T00:46:16.021Z,6.30
2019-03-25T00:47:48.875Z,6.30
2019-03-25T00:49:21.556Z,6.30
2019-03-25T00:50:54.392Z,6.30
2019-03-25T00:52:27.211Z,6.30
2019-03-25T00:53:59.893Z,6.20
2019-03-25T00:55:32.735Z,6.20
2019-03-25T00:57:05.655Z,6.20
2019-03-25T00:58:38.478Z,6.20
2019-03-25T01:00:11.711Z,6.20
2019-03-25T01:01:44.429Z,6.10
2019-03-25T01:03:17.241Z,6.10
2019-03-25T01:04:49.908Z,6.10
2019-03-25T01:06:22.647Z,6.00
2019-03-25T01:07:55.461Z,6.00
2019-03-25T01:09:28.286Z,6.00
2019-03-25T01:11:00.976Z,6.00
2019-03-25T01:12:33.764Z,6.00
2019-03-25T01:14:06.595Z,5.90
2019-03-25T01:15:39.399Z,5.90
2019-03-25T01:17:12.321Z,5.90
2019-03-25T01:18:45.122Z,5.90
2019-03-25T01:20:17.987Z,5.90
2019-03-25T01:21:50.910Z,5.90
2019-03-25T01:23:23.702Z,5.90
2019-03-25T01:25:01.753Z,5.90
2019-03-25T01:26:31.243Z,5.80
2019-03-25T01:28:04.189Z,5.80
2019-03-25T01:29:36.838Z,5.80
2019-03-25T01:31:09.710Z,5.80
2019-03-25T01:32:42.671Z,5.80
2019-03-25T01:34:15.484Z,5.70
2019-03-25T01:35:48.303Z,5.70
2019-03-25T01:37:20.986Z,5.70
2019-03-25T01:38:53.776Z,5.70
2019-03-25T01:40:26.836Z,5.60
2019-03-25T01:41:59.839Z,5.70
2019-03-25T01:43:32.740Z,5.60
2019-03-25T01:45:05.762Z,5.60
2019-03-25T01:46:38.609Z,5.60
2019-03-25T01:48:11.381Z,5.60
2019-03-25T01:49:44.220Z,5.60
2019-03-25T01:51:17.260Z,5.60
2019-03-25T01:52:50.257Z,5.60
2019-03-25T01:54:23.307Z,5.60
2019-03-25T01:55:56.172Z,5.60
2019-03-25T01:57:29.232Z,5.60
2019-03-25T01:59:02.267Z,5.60
2019-03-25T02:00:35.586Z,5.50
2019-03-25T02:02:08.651Z,5.60
2019-03-25T02:03:41.672Z,5.60
2019-03-25T02:05:14.544Z,5.60
2019-03-25T02:06:47.545Z,5.60
2019-03-25T02:08:20.616Z,5.60
2019-03-25T02:09:53.627Z,5.60
2019-03-25T02:11:26.689Z,5.60
2019-03-25T02:12:59.719Z,5.50
2019-03-25T02:14:32.759Z,5.50
2019-03-25T02:16:05.706Z,5.50
2019-03-25T02:17:38.591Z,5.50
2019-03-25T02:19:11.575Z,5.40
2019-03-25T02:20:44.421Z,5.30
2019-03-25T02:22:17.477Z,5.30
2019-03-25T02:23:50.380Z,5.20
2019-03-25T02:25:25.683Z,5.20
2019-03-25T02:26:58.132Z,5.10
2019-03-25T02:28:31.139Z,5.10
2019-03-25T02:30:04.667Z,5.00
2019-03-25T02:31:37.698Z,5.00
2019-03-25T02:33:10.682Z,5.00
2019-03-25T02:34:43.726Z,4.90
2019-03-25T02:36:16.763Z,4.90
2019-03-25T02:37:49.682Z,4.90
2019-03-25T02:39:22.779Z,4.90
2019-03-25T02:40:55.735Z,4.90
2019-03-25T02:42:28.789Z,4.90
2019-03-25T02:44:01.694Z,4.90
2019-03-25T02:45:34.717Z,4.90
2019-03-25T02:47:07.637Z,4.80
2019-03-25T02:48:40.649Z,4.80
2019-03-25T02:50:13.709Z,4.80
2019-03-25T02:51:46.808Z,4.80
2019-03-25T02:53:19.873Z,4.70
2019-03-25T02:54:52.889Z,4.70
2019-03-25T02:56:25.900Z,4.70
2019-03-25T02:57:58.845Z,4.70
2019-03-25T02:59:31.770Z,4.70
2019-03-25T03:01:04.837Z,4.70
2019-03-25T03:02:37.748Z,4.70
2019-03-25T03:04:10.831Z,4.70
2019-03-25T03:05:43.928Z,4.70
2019-03-25T03:07:16.946Z,4.70
2019-03-25T03:08:49.849Z,4.70
2019-03-25T03:10:22.856Z,4.70
2019-03-25T03:11:55.773Z,4.70
2019-03-25T03:13:28.788Z,4.70
2019-03-25T03:15:01.800Z,4.70
2019-03-25T03:16:34.959Z,4.60
2019-03-25T03:18:07.798Z,4.60
2019-03-25T03:19:40.859Z,4.60
2019-03-25T03:21:13.866Z,4.60
2019-03-25T03:22:46.826Z,4.60
2019-03-25T03:24:19.870Z,4.60
2019-03-25T03:25:57.819Z,4.60
2019-03-25T03:27:29.855Z,4.60
2019-03-25T03:29:02.408Z,4.60
2019-03-25T03:30:35.431Z,4.60
2019-03-25T03:32:08.550Z,4.60
2019-03-25T03:33:41.626Z,4.60
2019-03-25T03:35:14.700Z,4.60
2019-03-25T03:36:47.751Z,4.60
2019-03-25T03:38:20.839Z,4.60
2019-03-25T03:39:53.840Z,4.50
2019-03-25T03:41:26.844Z,4.50
2019-03-25T03:42:59.799Z,4.50
2019-03-25T03:44:32.792Z,4.60
2019-03-25T03:46:05.833Z,4.50
2019-03-25T03:47:38.927Z,4.50
2019-03-25T03:49:11.900Z,4.60
2019-03-25T03:50:44.948Z,4.50
2019-03-25T03:52:18.022Z,4.50
2019-03-25T03:53:50.946Z,4.50
2019-03-25T03:55:24.200Z,4.50
2019-03-25T03:56:57.191Z,4.50
2019-03-25T03:58:30.998Z,4.40
2019-03-25T04:00:04.312Z,4.50
2019-03-25T04:01:37.144Z,4.50
2019-03-25T04:03:09.951Z,4.50
2019-03-25T04:04:42.888Z,4.50
2019-03-25T04:06:16.049Z,4.50
2019-03-25T04:07:48.956Z,4.50
2019-03-25T04:09:21.812Z,4.50
2019-03-25T04:10:54.651Z,4.50
2019-03-25T04:12:27.316Z,4.40
2019-03-25T04:14:00.145Z,4.40
2019-03-25T04:15:32.902Z,4.40
2019-03-25T04:17:05.708Z,4.50
2019-03-25T04:18:38.653Z,4.50
2019-03-25T04:20:11.513Z,4.50
2019-03-25T04:21:44.378Z,4.60
2019-03-25T04:23:17.054Z,4.50
2019-03-25T04:24:49.844Z,4.50
2019-03-25T04:26:28.852Z,4.50
2019-03-25T04:27:57.221Z,4.50
2019-03-25T04:29:30.158Z,4.50
2019-03-25T04:31:02.929Z,4.60
2019-03-25T04:32:35.797Z,4.60
2019-03-25T04:34:08.683Z,4.60
2019-03-25T04:35:41.367Z,4.70
2019-03-25T04:37:14.118Z,4.70
2019-03-25T04:38:46.904Z,4.70
2019-03-25T04:40:19.751Z,4.70
2019-03-25T04:41:52.695Z,4.70
2019-03-25T04:43:25.492Z,4.70
2019-03-25T04:44:58.320Z,4.70
2019-03-25T04:46:31.235Z,4.80
2019-03-25T04:48:03.975Z,4.70
2019-03-25T04:49:36.839Z,4.70
2019-03-25T04:51:09.651Z,4.80
2019-03-25T04:52:42.428Z,4.70
2019-03-25T04:54:15.112Z,4.70
2019-03-25T04:55:47.981Z,4.70
2019-03-25T04:57:20.726Z,4.70
2019-03-25T04:58:53.565Z,4.70
2019-03-25T05:00:37.114Z,4.70
2019-03-25T05:02:09.832Z,4.60
2019-03-25T05:03:42.676Z,4.60
2019-03-25T05:05:15.532Z,4.70
2019-03-25T05:06:48.338Z,4.70
2019-03-25T05:08:21.025Z,4.70
2019-03-25T05:09:53.869Z,4.70
2019-03-25T05:11:30.820Z,4.70
2019-03-25T05:13:01.281Z,4.70
2019-03-25T05:14:33.981Z,4.70
2019-03-25T05:16:06.683Z,4.70
2019-03-25T05:17:39.517Z,4.70
2019-03-25T05:19:12.305Z,4.70
2019-03-25T05:20:45.005Z,4.80
2019-03-25T05:22:17.897Z,4.80
2019-03-25T05:23:50.712Z,4.80
2019-03-25T05:25:23.533Z,4.80
2019-03-25T05:26:56.413Z,4.90
2019-03-25T05:28:29.214Z,4.90
2019-03-25T05:30:01.893Z,4.90
2019-03-25T05:31:34.734Z,4.90
2019-03-25T05:33:07.561Z,4.90
2019-03-25T05:34:40.384Z,4.90
2019-03-25T05:36:13.080Z,4.90
2019-03-25T05:37:46.174Z,4.90
2019-03-25T05:39:19.012Z,4.90
2019-03-25T05:40:51.837Z,4.90
2019-03-25T05:42:24.664Z,4.90
2019-03-25T05:43:57.439Z,4.90
2019-03-25T05:45:30.271Z,5.00
2019-03-25T05:47:03.081Z,5.00
2019-03-25T05:48:35.775Z,5.00
2019-03-25T05:50:09.178Z,5.00
2019-03-25T05:51:42.295Z,5.10
2019-03-25T05:53:15.044Z,5.10
2019-03-25T05:54:47.881Z,5.10
2019-03-25T05:56:20.847Z,5.20
2019-03-25T05:57:53.689Z,5.20
2019-03-25T05:59:26.457Z,5.20
2019-03-25T06:00:59.240Z,5.20
2019-03-25T06:02:32.045Z,5.30
2019-03-25T06:04:04.934Z,5.30
2019-03-25T06:05:37.751Z,5.20
2019-03-25T06:07:10.509Z,5.30
2019-03-25T06:08:43.321Z,5.30
2019-03-25T06:10:16.129Z,5.40
2019-03-25T06:11:48.871Z,5.40
2019-03-25T06:13:21.661Z,5.40
2019-03-25T06:14:54.520Z,5.40
2019-03-25T06:16:27.345Z,5.40
2019-03-25T06:18:00.099Z,5.50
2019-03-25T06:19:32.921Z,5.50
2019-03-25T06:21:05.626Z,5.50
2019-03-25T06:22:38.398Z,5.50
2019-03-25T06:24:11.270Z,5.50
2019-03-25T06:25:44.112Z,5.60
2019-03-25T06:27:16.895Z,5.50
2019-03-25T06:28:49.605Z,5.60
2019-03-25T06:30:22.399Z,5.60
2019-03-25T06:31:55.213Z,5.60
2019-03-25T06:33:28.107Z,5.70
2019-03-25T06:35:00.924Z,5.80
2019-03-25T06:36:33.729Z,5.80
2019-03-25T06:38:06.464Z,5.80
2019-03-25T06:39:39.228Z,5.90
2019-03-25T06:41:12.085Z,5.90
2019-03-25T06:42:44.869Z,6.00
2019-03-25T06:44:17.886Z,6.00
2019-03-25T06:45:50.592Z,6.00
2019-03-25T06:47:23.333Z,6.10
2019-03-25T06:48:56.165Z,6.10
2019-03-25T06:50:29.005Z,6.20
2019-03-25T06:52:01.869Z,6.20
2019-03-25T06:53:34.740Z,6.20
2019-03-25T06:55:07.778Z,6.30
2019-03-25T06:56:40.600Z,6.30
2019-03-25T06:58:13.436Z,6.30
2019-03-25T06:59:46.285Z,6.40
2019-03-25T07:01:19.081Z,6.40
2019-03-25T07:02:51.718Z,6.40
2019-03-25T07:04:24.525Z,6.40
2019-03-25T07:05:57.392Z,6.40
2019-03-25T07:07:30.297Z,6.50
2019-03-25T07:09:04.172Z,6.50
2019-03-25T07:10:37.460Z,6.50
2019-03-25T07:12:10.256Z,6.60
2019-03-25T07:13:43.255Z,6.70
2019-03-25T07:15:19.613Z,6.70
2019-03-25T07:16:52.332Z,6.70
2019-03-25T07:18:26.015Z,6.70
2019-03-25T07:19:58.837Z,6.70
2019-03-25T07:21:31.551Z,6.80
2019-03-25T07:23:04.484Z,6.80
2019-03-25T07:24:37.253Z,6.80
2019-03-25T07:26:10.073Z,6.80
2019-03-25T07:27:42.892Z,6.80
2019-03-25T07:29:15.660Z,6.90
2019-03-25T07:30:48.522Z,6.80
2019-03-25T07:32:21.360Z,6.90
2019-03-25T07:33:54.155Z,6.90
2019-03-25T07:35:27.037Z,7.00
2019-03-25T07:36:59.830Z,7.00
2019-03-25T07:38:32.534Z,7.10
2019-03-25T07:40:07.379Z,7.10
2019-03-25T07:41:40.187Z,7.20
2019-03-25T07:43:13.062Z,7.30
2019-03-25T07:44:45.936Z,7.40
2019-03-25T07:46:18.724Z,7.40
2019-03-25T07:47:51.535Z,7.50
2019-03-25T07:49:24.404Z,7.50
2019-03-25T07:50:57.241Z,7.50
2019-03-25T07:52:30.080Z,7.50
2019-03-25T07:54:02.958Z,7.50
2019-03-25T07:55:35.884Z,7.50
2019-03-25T07:57:08.675Z,7.50
2019-03-25T07:58:41.436Z,7.50
2019-03-25T08:00:14.395Z,7.50
2019-03-25T08:01:47.398Z,7.50
2019-03-25T08:03:20.260Z,7.40
2019-03-25T08:04:53.160Z,7.40
2019-03-25T08:06:26.006Z,7.40
2019-03-25T08:07:58.920Z,7.40
2019-03-25T08:09:31.769Z,7.40
2019-03-25T08:11:04.693Z,7.40
2019-03-25T08:12:37.632Z,7.40
2019-03-25T08:14:10.573Z,7.30
2019-03-25T08:15:43.281Z,7.30
2019-03-25T08:17:16.044Z,7.30
2019-03-25T08:18:48.889Z,7.30
2019-03-25T08:20:21.713Z,7.20
2019-03-25T08:21:54.514Z,7.20
2019-03-25T08:23:27.332Z,7.20
2019-03-25T08:25:00.331Z,7.10
2019-03-25T08:26:33.317Z,7.10
2019-03-25T08:28:06.095Z,7.20
2019-03-25T08:29:38.898Z,7.10
2019-03-25T08:31:11.724Z,7.10
2019-03-25T08:32:44.455Z,7.10
2019-03-25T08:34:17.251Z,7.10
2019-03-25T08:35:50.045Z,7.20
2019-03-25T08:37:22.878Z,7.20
2019-03-25T08:38:55.711Z,7.30
2019-03-25T08:40:28.559Z,7.40
2019-03-25T08:42:01.228Z,7.60
2019-03-25T08:43:34.039Z,7.80
2019-03-25T08:45:07.001Z,7.90
2019-03-25T08:46:39.776Z,8.00
2019-03-25T08:48:12.599Z,8.30
2019-03-25T08:49:45.279Z,8.50
2019-03-25T08:51:18.104Z,8.70
2019-03-25T08:52:50.905Z,8.80
2019-03-25T08:54:23.650Z,8.80
2019-03-25T08:55:56.335Z,8.90
2019-03-25T08:57:29.195Z,9.00
2019-03-25T08:59:02.030Z,9.10
2019-03-25T09:00:34.858Z,9.10
2019-03-25T09:02:07.666Z,9.20
2019-03-25T09:03:40.381Z,9.40
2019-03-25T09:05:13.154Z,9.80
2019-03-25T09:06:47.822Z,10.00
2019-03-25T09:08:20.577Z,10.40
2019-03-25T09:09:53.365Z,10.70
2019-03-25T09:11:26.176Z,11.00
2019-03-25T09:12:58.978Z,11.30
2019-03-25T09:14:31.795Z,11.60
2019-03-25T09:16:04.628Z,11.80
2019-03-25T09:17:37.444Z,12.00
2019-03-25T09:19:10.230Z,12.20
2019-03-25T09:20:43.061Z,12.40
2019-03-25T09:22:15.871Z,12.60
2019-03-25T09:23:48.731Z,12.80
2019-03-25T09:25:21.576Z,12.90
2019-03-25T09:26:54.414Z,13.00
2019-03-25T09:28:27.202Z,13.20
2019-03-25T09:29:59.892Z,13.30
2019-03-25T09:31:37.056Z,13.40
2019-03-25T09:33:07.670Z,13.50
2019-03-25T09:34:40.422Z,13.50
2019-03-25T09:36:14.002Z,13.60
2019-03-25T09:37:46.633Z,13.70
2019-03-25T09:39:19.339Z,13.70
2019-03-25T09:40:52.153Z,13.70
2019-03-25T09:42:24.819Z,13.60
2019-03-25T09:43:57.625Z,13.60
2019-03-25T09:45:30.388Z,13.60
2019-03-25T09:47:03.456Z,13.60
2019-03-25T09:48:36.321Z,13.50
2019-03-25T09:50:10.064Z,13.50
2019-03-25T09:51:42.879Z,13.30
2019-03-25T09:53:15.681Z,13.10
2019-03-25T09:54:48.379Z,13.00
2019-03-25T09:56:21.084Z,12.80
2019-03-25T09:57:53.944Z,12.80
2019-03-25T09:59:26.758Z,13.00
2019-03-25T10:00:59.437Z,13.10
2019-03-25T10:02:32.294Z,13.20
2019-03-25T10:04:05.349Z,13.40
2019-03-25T10:05:38.187Z,13.60
2019-03-25T10:07:23.172Z,13.80
2019-03-25T10:08:56.044Z,13.90
2019-03-25T10:10:28.831Z,14.20
2019-03-25T10:12:01.726Z,14.30
2019-03-25T10:13:34.467Z,14.60
2019-03-25T10:15:08.565Z,14.70
2019-03-25T10:16:41.368Z,14.80
2019-03-25T10:18:14.263Z,14.90
2019-03-25T10:19:47.256Z,15.00
2019-03-25T10:21:20.066Z,15.10
2019-03-25T10:22:52.768Z,15.20
2019-03-25T10:24:27.789Z,15.30
2019-03-25T10:26:00.069Z,15.40
2019-03-25T10:27:32.888Z,15.40
2019-03-25T10:29:05.636Z,15.40
2019-03-25T10:30:38.459Z,15.40
2019-03-25T10:32:13.646Z,15.40
2019-03-25T10:33:49.005Z,15.20
2019-03-25T10:35:21.784Z,15.20
2019-03-25T10:36:57.458Z,15.20
2019-03-25T10:38:35.231Z,15.20
2019-03-25T10:40:08.613Z,15.10
2019-03-25T10:41:41.600Z,15.10
2019-03-25T10:43:14.259Z,15.10
2019-03-25T10:44:47.077Z,15.20
2019-03-25T10:46:19.990Z,15.30
2019-03-25T10:47:52.883Z,15.30
2019-03-25T10:49:25.735Z,15.40
2019-03-25T10:50:58.376Z,15.50
2019-03-25T10:52:31.257Z,15.60
2019-03-25T10:54:04.055Z,15.60
2019-03-25T10:55:36.885Z,15.70
2019-03-25T10:57:09.692Z,15.70
2019-03-25T10:58:45.076Z,15.60
2019-03-25T11:00:18.516Z,15.50
2019-03-25T11:01:51.391Z,15.40
2019-03-25T11:03:24.357Z,15.30
2019-03-25T11:04:57.098Z,15.10
2019-03-25T11:06:29.906Z,15.00
2019-03-25T11:08:02.752Z,14.80
2019-03-25T11:09:35.524Z,14.60
2019-03-25T11:11:08.439Z,14.50
2019-03-25T11:12:41.248Z,14.40
2019-03-25T11:14:17.464Z,14.40
2019-03-25T11:15:50.317Z,14.30
2019-03-25T11:17:24.683Z,14.30
2019-03-25T11:18:57.493Z,14.30
2019-03-25T11:20:30.180Z,14.40
2019-03-25T11:22:02.979Z,14.40
2019-03-25T11:23:35.972Z,14.50
2019-03-25T11:25:10.952Z,14.70
2019-03-25T11:26:43.904Z,14.80
2019-03-25T11:28:16.851Z,14.80
2019-03-25T11:29:49.663Z,14.70
2019-03-25T11:31:22.546Z,14.50
2019-03-25T11:32:55.359Z,14.30
2019-03-25T11:34:28.196Z,14.10
2019-03-25T11:36:02.687Z,13.80
2019-03-25T11:37:41.340Z,13.60
2019-03-25T11:39:14.271Z,13.40
2019-03-25T11:40:47.132Z,13.20
2019-03-25T11:42:20.003Z,13.10
2019-03-25T11:43:52.876Z,13.00
2019-03-25T11:45:25.720Z,13.10
2019-03-25T11:46:58.666Z,13.20
2019-03-25T11:48:31.590Z,13.40
2019-03-25T11:50:04.706Z,13.60
2019-03-25T11:51:37.601Z,13.80
2019-03-25T11:53:11.668Z,14.00
2019-03-25T11:54:47.068Z,14.20
2019-03-25T11:56:20.062Z,14.40
2019-03-25T11:57:55.367Z,14.50
2019-03-25T11:59:30.705Z,14.60
2019-03-25T12:01:03.791Z,14.60
2019-03-25T12:02:36.613Z,14.60
2019-03-25T12:12:05.002Z,13.40
2019-03-25T12:13:37.809Z,13.30
2019-03-25T12:15:10.938Z,13.30
2019-03-25T12:16:43.723Z,13.30
2019-03-25T12:18:16.505Z,13.30
2019-03-25T12:19:49.328Z,13.30
2019-03-25T12:21:22.205Z,13.40
2019-03-25T12:22:54.996Z,13.40
2019-03-25T12:24:27.702Z,13.40
2019-03-25T12:26:00.537Z,13.50
2019-03-25T12:27:33.393Z,13.40
2019-03-25T12:29:06.291Z,13.40
2019-03-25T12:30:39.076Z,13.40
2019-03-25T12:32:11.880Z,13.30
2019-03-25T12:33:44.770Z,13.20
2019-03-25T12:35:17.419Z,13.00
2019-03-25T12:36:50.166Z,12.80
2019-03-25T12:38:22.958Z,12.70
2019-03-25T12:39:55.627Z,12.50
2019-03-25T12:41:28.456Z,12.40
2019-03-25T12:43:01.246Z,12.30
2019-03-25T12:44:34.090Z,12.10
2019-03-25T12:46:06.893Z,12.00
2019-03-25T12:47:39.713Z,11.90
2019-03-25T12:49:12.477Z,11.80
2019-03-25T12:50:45.129Z,11.70
2019-03-25T12:52:17.957Z,11.60
2019-03-25T12:53:50.783Z,11.50
2019-03-25T12:55:23.534Z,11.40
2019-03-25T12:56:58.213Z,11.40
2019-03-25T12:58:31.024Z,11.40
2019-03-25T13:00:04.462Z,11.40
2019-03-25T13:01:37.169Z,11.30
2019-03-25T13:03:09.998Z,11.30
2019-03-25T13:04:42.774Z,11.20
2019-03-25T13:06:15.618Z,11.10
2019-03-25T13:07:48.459Z,11.10
2019-03-25T13:09:21.270Z,11.10
2019-03-25T13:10:54.048Z,11.20
2019-03-25T13:12:26.825Z,11.20
2019-03-25T13:13:59.566Z,11.20
2019-03-25T13:15:32.460Z,11.30
2019-03-25T13:17:05.289Z,11.30
2019-03-25T13:18:38.059Z,11.30
2019-03-25T13:20:10.839Z,11.40
2019-03-25T13:21:43.513Z,11.40
2019-03-25T13:23:16.331Z,11.50
2019-03-25T13:24:49.123Z,11.50
2019-03-25T13:26:21.761Z,11.50
2019-03-25T13:27:54.615Z,11.50
2019-03-25T13:29:27.376Z,11.50
2019-03-25T13:31:00.153Z,11.50
2019-03-25T13:32:32.894Z,11.50
2019-03-25T13:34:05.567Z,11.50
2019-03-25T13:35:38.418Z,11.40
2019-03-25T13:37:11.168Z,11.50
2019-03-25T13:38:43.896Z,11.40
2019-03-25T13:40:16.811Z,11.50
2019-03-25T13:41:49.645Z,11.50
2019-03-25T13:43:22.434Z,11.50
2019-03-25T13:44:57.616Z,11.50
2019-03-25T13:46:29.905Z,11.40
2019-03-25T13:48:02.730Z,11.40
2019-03-25T13:49:35.445Z,11.40
2019-03-25T13:51:08.272Z,11.40
2019-03-25T13:52:41.129Z,11.40
2019-03-25T13:54:14.030Z,11.50
2019-03-25T13:55:49.117Z,11.50
2019-03-25T13:57:24.288Z,11.50
2019-03-25T13:58:57.109Z,11.50
2019-03-25T14:00:40.184Z,11.40
2019-03-25T14:02:12.932Z,11.50
2019-03-25T14:03:45.725Z,11.40
2019-03-25T14:05:18.548Z,11.50
2019-03-25T14:06:51.324Z,11.40
2019-03-25T14:08:24.211Z,11.40
2019-03-25T14:09:57.061Z,11.30
2019-03-25T14:11:29.849Z,11.20
2019-03-25T14:13:02.676Z,11.10
2019-03-25T14:14:35.510Z,11.00
2019-03-25T14:16:08.196Z,10.80
2019-03-25T14:17:40.873Z,10.80
2019-03-25T14:19:13.532Z,10.70
2019-03-25T14:20:46.373Z,10.70
2019-03-25T14:22:19.165Z,10.70
2019-03-25T14:23:52.136Z,10.70
2019-03-25T14:25:24.965Z,10.70
2019-03-25T14:26:57.629Z,10.60
2019-03-25T14:28:30.491Z,10.60
2019-03-25T14:30:13.940Z,10.60
2019-03-25T14:31:39.433Z,10.60
2019-03-25T14:33:12.252Z,10.60
2019-03-25T14:34:45.290Z,10.60
2019-03-25T14:36:18.094Z,10.50
2019-03-25T14:37:50.948Z,10.50
2019-03-25T14:39:23.763Z,10.50
2019-03-25T14:40:56.579Z,10.40
2019-03-25T14:42:29.373Z,10.40
2019-03-25T14:44:02.238Z,10.40
2019-03-25T14:45:35.039Z,10.40
2019-03-25T14:47:07.912Z,10.40
2019-03-25T14:48:40.721Z,10.40
2019-03-25T14:50:13.696Z,10.40
2019-03-25T14:51:46.700Z,10.40
2019-03-25T14:53:19.555Z,10.30
2019-03-25T14:54:52.380Z,10.30
2019-03-25T14:56:25.317Z,10.40
2019-03-25T14:57:58.113Z,10.40
2019-03-25T14:59:31.002Z,10.30
2019-03-25T15:01:03.900Z,10.40
2019-03-25T15:02:36.590Z,10.40
2019-03-25T15:04:09.436Z,10.40
2019-03-25T15:05:42.084Z,10.40
2019-03-25T15:07:14.781Z,10.40
2019-03-25T15:08:47.399Z,10.50
2019-03-25T15:10:20.094Z,10.50
2019-03-25T15:11:52.857Z,10.50
2019-03-25T15:13:25.746Z,10.60
2019-03-25T15:14:58.529Z,10.50
2019-03-25T15:16:31.306Z,10.60
2019-03-25T15:18:14.856Z,10.50
2019-03-25T15:19:38.795Z,10.50
2019-03-25T15:21:11.588Z,10.50
2019-03-25T15:22:44.365Z,10.50
2019-03-25T15:24:17.232Z,10.50
2019-03-25T15:25:50.094Z,10.50
2019-03-25T15:27:22.905Z,10.50
2019-03-25T15:28:55.781Z,10.50
2019-03-25T15:30:35.869Z,10.50
2019-03-25T15:32:03.080Z,10.40
2019-03-25T15:33:35.854Z,10.30
2019-03-25T15:35:08.685Z,10.30
2019-03-25T15:36:41.535Z,10.30
2019-03-25T15:38:14.314Z,10.20
2019-03-25T15:39:47.211Z,10.20
2019-03-25T15:41:21.845Z,10.20
2019-03-25T15:42:54.612Z,10.20
2019-03-25T15:44:27.439Z,10.10
2019-03-25T15:46:00.295Z,10.10
2019-03-25T15:47:33.236Z,10.00
2019-03-25T15:49:06.141Z,9.90
2019-03-25T15:50:39.006Z,9.90
2019-03-25T15:52:11.897Z,9.80
2019-03-25T15:53:44.741Z,9.80
2019-03-25T15:55:17.585Z,9.70
2019-03-25T15:56:50.554Z,9.60
2019-03-25T15:58:26.225Z,9.50
2019-03-25T15:59:58.073Z,9.40
2019-03-25T16:01:30.839Z,9.40
2019-03-25T16:03:03.675Z,9.40
2019-03-25T16:04:36.380Z,9.30
2019-03-25T16:06:09.500Z,9.30
2019-03-25T16:07:42.275Z,9.30
2019-03-25T16:09:15.198Z,9.30
2019-03-25T16:10:48.154Z,9.30
2019-03-25T16:12:20.973Z,9.30
2019-03-25T16:13:53.781Z,9.20
2019-03-25T16:15:37.458Z,9.30
2019-03-25T16:17:10.163Z,9.20
2019-03-25T16:18:42.973Z,9.30
2019-03-25T16:20:15.832Z,9.20
2019-03-25T16:21:51.901Z,9.20
2019-03-25T16:23:24.592Z,9.20
2019-03-25T16:24:57.413Z,9.20
2019-03-25T16:26:30.269Z,9.20
2019-03-25T16:28:03.054Z,9.20
2019-03-25T16:29:35.871Z,9.20
2019-03-25T16:31:08.732Z,9.20
2019-03-25T16:32:41.528Z,9.20
2019-03-25T16:34:14.394Z,9.20
2019-03-25T16:35:47.197Z,9.20
2019-03-25T16:37:29.758Z,9.20
2019-03-25T16:39:04.871Z,9.20
2019-03-25T16:40:37.786Z,9.20
2019-03-25T16:42:10.626Z,9.20
2019-03-25T16:43:43.397Z,9.20
2019-03-25T16:45:16.262Z,9.20
2019-03-25T16:46:49.161Z,9.20
2019-03-25T16:48:21.988Z,9.20
2019-03-25T16:49:54.735Z,9.20
2019-03-25T16:51:27.518Z,9.20
2019-03-25T16:53:00.837Z,9.10
2019-03-25T16:54:33.729Z,9.10
2019-03-25T16:56:06.440Z,9.00
2019-03-25T16:57:39.241Z,9.00
2019-03-25T16:59:12.060Z,9.00
2019-03-25T17:00:44.734Z,9.00
2019-03-25T17:02:17.444Z,9.00
2019-03-25T17:03:50.229Z,9.00
2019-03-25T17:05:23.140Z,8.90
2019-03-25T17:06:55.993Z,8.80
2019-03-25T17:08:28.910Z,8.80
2019-03-25T17:10:01.616Z,8.80
2019-03-25T17:11:34.439Z,8.80
2019-03-25T17:13:07.220Z,8.70
2019-03-25T17:14:40.044Z,8.70
2019-03-25T17:16:12.813Z,8.60
2019-03-25T17:17:45.726Z,8.60
2019-03-25T17:19:18.445Z,8.50
2019-03-25T17:20:51.226Z,8.50
2019-03-25T17:22:23.959Z,8.40
2019-03-25T17:23:56.731Z,8.40
2019-03-25T17:25:29.559Z,8.40
2019-03-25T17:27:02.401Z,8.30
2019-03-25T17:28:35.176Z,8.30
2019-03-25T17:30:11.700Z,8.30
2019-03-25T17:31:44.475Z,8.30
2019-03-25T17:33:17.256Z,8.20
2019-03-25T17:34:49.974Z,8.20
2019-03-25T17:36:22.880Z,8.20
2019-03-25T17:37:55.582Z,8.20
2019-03-25T17:39:28.228Z,8.10
2019-03-25T17:41:01.140Z,8.10
2019-03-25T17:42:34.013Z,8.10
2019-03-25T17:44:06.813Z,8.10
2019-03-25T17:45:39.605Z,8.00
2019-03-25T17:47:12.287Z,7.90
2019-03-25T17:48:45.158Z,7.90
2019-03-25T17:50:17.982Z,7.90
2019-03-25T17:51:50.772Z,7.80
2019-03-25T17:53:23.583Z,7.80
2019-03-25T17:54:56.285Z,7.80
2019-03-25T17:56:29.099Z,7.80
2019-03-25T17:58:01.886Z,7.80
2019-03-25T17:59:34.679Z,7.80
2019-03-25T18:01:32.593Z,7.70
2019-03-25T18:03:10.953Z,7.70
2019-03-25T18:04:40.057Z,7.70
2019-03-25T18:06:12.852Z,7.70
2019-03-25T18:07:45.670Z,7.60
2019-03-25T18:09:23.963Z,7.60
2019-03-25T18:10:56.800Z,7.60
2019-03-25T18:12:38.374Z,7.60
2019-03-25T18:14:04.184Z,7.60
2019-03-25T18:15:37.027Z,7.60
2019-03-25T18:17:09.845Z,7.50
2019-03-25T18:18:42.680Z,7.50
2019-03-25T18:20:18.955Z,7.50
2019-03-25T18:21:50.121Z,7.50
2019-03-25T18:23:22.786Z,7.40
2019-03-25T18:24:55.438Z,7.40
2019-03-25T18:26:28.277Z,7.30
2019-03-25T18:28:01.124Z,7.30
2019-03-25T18:29:34.099Z,7.30
2019-03-25T18:31:06.855Z,7.30
2019-03-25T18:32:39.716Z,7.30
2019-03-25T18:34:12.476Z,7.30
2019-03-25T18:35:45.286Z,7.20
2019-03-25T18:37:18.114Z,7.20
2019-03-25T18:38:50.915Z,7.20
2019-03-25T18:40:23.794Z,7.20
2019-03-25T18:41:56.622Z,7.20
2019-03-25T18:43:29.362Z,7.10
2019-03-25T18:45:02.118Z,7.10
2019-03-25T18:46:34.845Z,7.10
2019-03-25T18:48:07.542Z,7.10
2019-03-25T18:49:40.309Z,7.10
2019-03-25T18:51:13.039Z,7.10
2019-03-25T18:52:45.746Z,7.10
2019-03-25T18:54:18.386Z,7.10
2019-03-25T18:55:51.174Z,7.10
2019-03-25T18:57:23.836Z,7.00
2019-03-25T18:58:56.680Z,7.00
2019-03-25T19:00:31.057Z,7.00
2019-03-25T19:02:04.179Z,7.00
2019-03-25T19:03:37.138Z,6.90
2019-03-25T19:05:09.974Z,6.90
2019-03-25T19:06:44.681Z,6.90
2019-03-25T19:08:18.060Z,6.90
2019-03-25T19:09:52.633Z,6.90
2019-03-25T19:11:31.085Z,6.90
2019-03-25T19:13:00.126Z,6.90
2019-03-25T19:14:32.821Z,6.90
2019-03-25T19:16:05.681Z,6.90
2019-03-25T19:17:38.546Z,7.00
2019-03-25T19:19:11.430Z,7.00
2019-03-25T19:20:44.275Z,7.00
2019-03-25T19:22:17.148Z,7.00
2019-03-25T19:23:50.000Z,7.10
2019-03-25T19:25:22.906Z,7.10
2019-03-25T19:26:55.840Z,7.10
2019-03-25T19:28:28.666Z,7.10
2019-03-25T19:30:01.572Z,7.10
2019-03-25T19:31:34.225Z,7.00
2019-03-25T19:33:07.039Z,7.00
2019-03-25T19:34:39.889Z,7.00
2019-03-25T19:36:12.688Z,6.90
2019-03-25T19:37:45.625Z,6.90
2019-03-25T19:39:18.411Z,6.90
2019-03-25T19:40:51.208Z,6.90
2019-03-25T19:42:24.007Z,6.90
2019-03-25T19:43:57.030Z,6.90
2019-03-25T19:45:29.880Z,6.90
2019-03-25T19:47:02.837Z,6.90
2019-03-25T19:48:35.650Z,6.90
2019-03-25T19:50:08.771Z,6.80
2019-03-25T19:51:41.610Z,6.80
2019-03-25T19:53:19.304Z,6.70
2019-03-25T19:54:49.127Z,6.80
2019-03-25T19:56:22.012Z,6.80
2019-03-25T19:57:54.860Z,6.80
2019-03-25T19:59:27.716Z,6.80
2019-03-25T20:01:00.557Z,6.80
2019-03-25T20:02:33.400Z,6.80
2019-03-25T20:04:06.338Z,6.80
2019-03-25T20:05:39.230Z,6.80
2019-03-25T20:07:12.080Z,6.80
2019-03-25T20:08:44.885Z,6.80
2019-03-25T20:10:31.337Z,6.80
2019-03-25T20:12:04.455Z,6.80
2019-03-25T20:13:37.287Z,6.80
2019-03-25T20:15:10.121Z,6.80
2019-03-25T20:16:43.001Z,6.70
2019-03-25T20:18:15.742Z,6.70
2019-03-25T20:19:48.573Z,6.70
2019-03-25T20:21:21.511Z,6.70
2019-03-25T20:22:54.416Z,6.60
2019-03-25T20:24:27.320Z,6.60
2019-03-25T20:26:00.182Z,6.60
2019-03-25T20:27:33.123Z,6.60
2019-03-25T20:29:06.991Z,6.60
2019-03-25T20:30:39.839Z,6.60
2019-03-25T20:32:12.644Z,6.60
2019-03-25T20:33:45.480Z,6.60
2019-03-25T20:35:18.425Z,6.60